createdAt,value
2023-01-15T00:01:48.456Z,18.40
2023-01-15T00:06:51.288Z,19.30
2023-01-15T00:11:55.137Z,18.40
2023-01-15T00:16:57.977Z,19.20
2023-01-15T00:22:00.832Z,17.00
2023-01-15T00:27:24.693Z,16.20
2023-01-15T00:32:29.869Z,17.00
2023-01-15T00:37:32.962Z,16.90
2023-01-15T00:42:35.840Z,15.90
2023-01-15T00:47:44.384Z,15.50
2023-01-15T00:52:47.790Z,17.90
2023-01-15T00:57:50.591Z,15.30
2023-01-15T01:02:53.344Z,17.20
2023-01-15T01:07:56.119Z,12.00
2023-01-15T01:12:58.947Z,12.40
2023-01-15T01:18:02.106Z,13.00
2023-01-15T01:23:04.933Z,11.70
2023-01-15T01:28:07.735Z,12.20
2023-01-15T01:33:10.551Z,11.50
2023-01-15T01:38:13.301Z,13.10
2023-01-15T01:43:22.071Z,13.00
2023-01-15T01:48:30.408Z,13.00
2023-01-15T01:53:33.267Z,12.70
2023-01-15T01:58:36.024Z,13.80
2023-01-15T02:03:38.886Z,12.20
2023-01-15T02:08:42.109Z,13.10
2023-01-15T02:14:06.331Z,13.10
2023-01-15T02:19:36.642Z,13.80
2023-01-15T02:25:21.193Z,14.60
2023-01-15T02:30:44.284Z,13.80
2023-01-15T02:35:50.669Z,13.90
2023-01-15T02:40:55.406Z,14.20
2023-01-15T02:45:58.691Z,13.50
2023-01-15T02:51:08.291Z,12.70
2023-01-15T02:56:20.675Z,14.30
2023-01-15T03:01:51.195Z,15.00
2023-01-15T03:07:23.333Z,13.10
2023-01-15T03:12:33.890Z,15.80
2023-01-15T03:17:43.690Z,14.50
2023-01-15T03:22:46.993Z,12.50
2023-01-15T03:27:49.895Z,15.90
2023-01-15T03:32:54.143Z,13.10
2023-01-15T03:37:57.337Z,13.20
2023-01-15T03:43:20.670Z,12.60
2023-01-15T03:48:46.876Z,12.70
2023-01-15T03:53:56.556Z,12.10
2023-01-15T03:59:21.874Z,11.00
2023-01-15T04:04:26.206Z,13.30
2023-01-15T04:09:29.044Z,11.10
2023-01-15T04:14:32.072Z,10.50
2023-01-15T04:19:35.014Z,11.30
2023-01-15T04:24:38.368Z,11.30
2023-01-15T04:29:41.214Z,9.60
2023-01-15T04:34:44.060Z,9.90
2023-01-15T04:39:47.848Z,8.30
2023-01-15T04:44:50.647Z,10.30
2023-01-15T04:49:53.884Z,9.40
2023-01-15T04:54:56.795Z,10.00
2023-01-15T04:59:59.853Z,9.80
2023-01-15T05:05:02.660Z,8.50
2023-01-15T05:10:07.299Z,7.40
2023-01-15T05:15:10.556Z,8.40
2023-01-15T05:20:15.034Z,7.20
2023-01-15T05:25:17.871Z,7.00
2023-01-15T05:30:20.784Z,6.90
2023-01-15T05:35:23.620Z,7.00
2023-01-15T05:40:26.442Z,6.00
2023-01-15T05:45:29.355Z,6.50
2023-01-15T05:50:32.207Z,5.90
2023-01-15T05:55:35.102Z,5.50
2023-01-15T06:00:38.000Z,5.50
2023-01-15T06:05:40.870Z,4.60
2023-01-15T06:10:45.743Z,5.00
2023-01-15T06:15:48.556Z,6.00
2023-01-15T06:20:51.441Z,4.80
2023-01-15T06:25:54.536Z,4.70
2023-01-15T06:30:57.309Z,4.90
2023-01-15T06:36:11.076Z,4.70
2023-01-15T06:41:45.791Z,4.80
2023-01-15T06:47:09.455Z,5.90
2023-01-15T06:52:12.261Z,5.10
2023-01-15T06:57:15.091Z,4.80
2023-01-15T07:02:18.670Z,4.80
2023-01-15T07:07:21.861Z,4.50
2023-01-15T07:12:24.695Z,4.80
2023-01-15T07:17:28.685Z,4.50
2023-01-15T07:22:31.934Z,5.10
2023-01-15T07:27:34.774Z,3.90
2023-01-15T07:32:38.010Z,5.50
2023-01-15T07:37:40.908Z,3.60
2023-01-15T07:43:02.420Z,4.10
2023-01-15T07:48:28.915Z,4.50
2023-01-15T07:53:31.716Z,5.30
2023-01-15T07:58:34.559Z,3.80
2023-01-15T08:03:37.820Z,5.00
2023-01-15T08:08:40.659Z,4.30
2023-01-15T08:14:02.199Z,5.00
2023-01-15T08:19:05.110Z,3.70
2023-01-15T08:24:07.977Z,4.00
2023-01-15T08:29:10.861Z,7.00
2023-01-15T08:34:13.706Z,4.30
2023-01-15T08:39:16.487Z,5.10
2023-01-15T08:44:21.639Z,4.80
2023-01-15T08:49:24.528Z,4.10
2023-01-15T08:54:27.477Z,3.50
2023-01-15T08:59:30.666Z,4.80
2023-01-15T09:04:33.602Z,4.30
2023-01-15T09:09:36.551Z,4.40
2023-01-15T09:14:58.463Z,4.20
2023-01-15T09:20:06.789Z,4.20
2023-01-15T09:25:10.155Z,5.30
2023-01-15T09:30:21.561Z,3.60
2023-01-15T09:35:24.434Z,5.10
2023-01-15T09:40:57.515Z,4.50
2023-01-15T09:46:16.708Z,5.50
2023-01-15T09:51:35.772Z,5.00
2023-01-15T09:56:38.720Z,8.10
2023-01-15T10:01:41.533Z,4.40
2023-01-15T10:07:04.350Z,5.40
2023-01-15T10:12:35.528Z,5.70
2023-01-15T10:17:44.265Z,6.40
2023-01-15T10:23:31.242Z,6.10
2023-01-15T10:28:58.479Z,8.50
2023-01-15T10:34:37.946Z,6.40
2023-01-15T10:40:14.747Z,6.30
2023-01-15T10:45:26.905Z,10.10
2023-01-15T10:50:29.743Z,6.80
2023-01-15T10:55:41.933Z,7.20
2023-01-15T11:00:52.721Z,7.50
2023-01-15T11:05:57.578Z,8.30
2023-01-15T11:11:53.614Z,7.90
2023-01-15T11:17:08.675Z,7.10
2023-01-15T11:22:18.456Z,7.40
2023-01-15T11:27:25.006Z,7.60
2023-01-15T11:32:32.875Z,10.00
2023-01-15T11:37:35.680Z,7.60
2023-01-15T11:42:57.533Z,8.50
2023-01-15T11:48:19.079Z,8.80
2023-01-15T11:53:27.766Z,10.00
2023-01-15T12:03:37.214Z,10.80
2023-01-15T12:08:56.917Z,10.10
2023-01-15T12:14:09.973Z,10.90
2023-01-15T12:19:37.085Z,8.90
2023-01-15T12:25:18.980Z,9.80
2023-01-15T12:30:40.072Z,8.80
2023-01-15T12:35:47.141Z,9.70
2023-01-15T12:40:57.493Z,9.00
2023-01-15T12:46:00.357Z,11.20
2023-01-15T12:51:04.654Z,10.50
2023-01-15T12:56:37.524Z,10.60
2023-01-15T13:02:17.478Z,11.60
2023-01-15T13:08:03.987Z,10.10
2023-01-15T13:13:17.058Z,10.40
2023-01-15T13:19:04.298Z,11.80
2023-01-15T13:24:19.956Z,10.80
2023-01-15T13:30:12.997Z,11.20
2023-01-15T13:35:34.356Z,13.30
2023-01-15T13:40:44.392Z,10.70
2023-01-15T13:45:50.133Z,10.00
2023-01-15T13:50:55.041Z,11.60
2023-01-15T13:56:06.417Z,9.80
2023-01-15T14:01:20.572Z,11.00
2023-01-15T14:06:23.602Z,10.80
2023-01-15T14:11:55.247Z,11.10
2023-01-15T14:17:12.478Z,10.10
2023-01-15T14:22:40.138Z,12.10
2023-01-15T14:28:02.243Z,11.00
2023-01-15T14:33:11.141Z,12.60
2023-01-15T14:38:19.261Z,11.30
2023-01-15T14:43:22.592Z,11.40
2023-01-15T14:48:28.128Z,13.20
2023-01-15T14:53:34.233Z,10.30
2023-01-15T14:58:49.163Z,10.80
2023-01-15T15:04:07.115Z,10.10
2023-01-15T15:09:13.699Z,10.10
2023-01-15T15:14:16.577Z,11.80
2023-01-15T15:19:40.711Z,11.50
2023-01-15T15:24:49.807Z,12.90
2023-01-15T15:29:52.656Z,12.40
2023-01-15T15:34:56.105Z,10.40
2023-01-15T15:40:05.014Z,10.60
2023-01-15T15:45:46.659Z,10.10
2023-01-15T15:50:49.754Z,9.40
2023-01-15T15:55:53.288Z,8.80
2023-01-15T16:00:57.575Z,10.80
2023-01-15T16:06:03.390Z,7.60
2023-01-15T16:11:09.108Z,9.20
2023-01-15T16:16:12.008Z,9.80
2023-01-15T16:21:22.252Z,8.20
2023-01-15T16:26:35.027Z,7.90
2023-01-15T16:31:37.829Z,9.40
2023-01-15T16:36:42.238Z,9.30
2023-01-15T16:41:45.424Z,9.80
2023-01-15T16:46:55.759Z,9.30
2023-01-15T16:52:00.844Z,10.80
2023-01-15T16:57:23.782Z,9.40
2023-01-15T17:02:29.923Z,9.80
2023-01-15T17:07:37.409Z,11.20
2023-01-15T17:12:40.280Z,10.40
2023-01-15T17:17:49.474Z,11.10
2023-01-15T17:22:52.451Z,43.30
2023-01-15T17:27:56.041Z,38.90
2023-01-15T17:33:03.340Z,53.90
2023-01-15T17:38:07.523Z,13.80
2023-01-15T17:43:15.067Z,11.20
2023-01-15T17:48:18.516Z,10.40
2023-01-15T17:53:22.574Z,13.00
2023-01-15T17:58:44.009Z,11.30
2023-01-15T18:04:08.945Z,14.10
2023-01-15T18:09:11.695Z,12.80
2023-01-15T18:14:14.532Z,10.90
2023-01-15T18:19:17.410Z,15.60
2023-01-15T18:24:22.225Z,45.20
2023-01-15T18:29:25.500Z,18.80
2023-01-15T18:34:28.418Z,12.30
2023-01-15T18:39:31.526Z,12.50
2023-01-15T18:44:53.118Z,10.70
2023-01-15T18:49:56.279Z,12.70
2023-01-15T18:55:00.684Z,14.00
2023-01-15T19:00:04.128Z,10.70
2023-01-15T19:05:07.344Z,11.50
2023-01-15T19:10:11.878Z,11.10
2023-01-15T19:15:36.672Z,12.50
2023-01-15T19:20:39.555Z,13.10
2023-01-15T19:25:45.408Z,7.50
2023-01-15T19:31:07.800Z,7.60
2023-01-15T19:36:11.187Z,6.90
2023-01-15T19:41:32.718Z,5.40
2023-01-15T19:47:07.961Z,5.40
2023-01-15T19:52:29.213Z,5.20
2023-01-15T19:57:32.056Z,5.60
2023-01-15T20:02:35.013Z,4.50
2023-01-15T20:07:38.318Z,4.60
2023-01-15T20:12:59.825Z,4.80
2023-01-15T20:18:02.624Z,5.50
2023-01-15T20:23:05.845Z,6.40
2023-01-15T20:28:08.657Z,6.40
2023-01-15T20:33:12.098Z,4.40
2023-01-15T20:38:19.057Z,10.50
2023-01-15T20:43:40.597Z,10.70
2023-01-15T20:49:01.805Z,10.40
2023-01-15T20:54:04.766Z,12.80
2023-01-15T20:59:07.550Z,10.20
2023-01-15T21:04:12.612Z,13.30
2023-01-15T21:09:16.664Z,11.00
2023-01-15T21:14:19.502Z,9.60
2023-01-15T21:19:23.313Z,10.40
2023-01-15T21:24:26.405Z,10.30
2023-01-15T21:29:29.449Z,9.40
2023-01-15T21:34:32.288Z,7.40
2023-01-15T21:39:35.128Z,7.00
2023-01-15T21:44:43.464Z,7.40
2023-01-15T21:49:46.844Z,7.80
2023-01-15T21:54:50.186Z,7.40
2023-01-15T21:59:53.032Z,7.20
2023-01-15T22:04:55.824Z,7.60
2023-01-15T22:09:58.617Z,7.90
2023-01-15T22:15:01.393Z,6.50
2023-01-15T22:20:06.274Z,7.70
2023-01-15T22:25:11.912Z,8.70
2023-01-15T22:30:16.756Z,5.20
2023-01-15T22:35:19.627Z,6.80
2023-01-15T22:40:22.474Z,6.60
2023-01-15T22:45:25.347Z,6.70
2023-01-15T22:50:28.307Z,6.60
2023-01-15T22:55:31.148Z,6.80
2023-01-15T23:00:34.099Z,5.90
2023-01-15T23:05:39.829Z,5.70
2023-01-15T23:10:45.894Z,6.60
2023-01-15T23:15:58.718Z,6.50
2023-01-15T23:21:04.735Z,5.20
2023-01-15T23:26:12.977Z,6.10
2023-01-15T23:31:15.809Z,4.70
2023-01-15T23:36:18.758Z,5.70
2023-01-15T23:41:44.875Z,6.40
2023-01-15T23:46:48.232Z,5.80
2023-01-15T23:51:51.187Z,8.40
2023-01-15T23:56:55.141Z,5.30
